This London Heathrow Airport weather forecast is generated by the Met Office Weather Widget

AirNav RadarBox - Metar Weather
  London Heathrow Metar Weather
 

METAR = EGLL 230020Z AUTO 20007KT 9999 BKN028 12/08 Q1023

STATION........ EGLL
OBSERVED....... Thu Oct 23, 01:20 BST
NOW............ Thu Oct 23, 01:34 BST
AGE............ 14 min ago
WIND........... SSW at 8 mph
VISIBILITY..... 16 miles
CLOUDS......... mostly cloudy
TEMP........... 54°F (12°C)
DEWPT.......... 46°F (8°C)
HUMIDITY....... 77%
BAROMETER...... 1023 hPa (30.21 in Hg)

Thu Oct 23 2014, sunrise time : 06:44
Thu Oct 23 2014, sunset time : 16:47